sensor_id;sensor_type;location;lat;lon;timestamp;P1;durP1;ratioP1;P2;durP2;ratioP2
21862;SDS011;11096;51.338;12.524;2022-07-15T00:01:47;3.97;;;0.80;;
21862;SDS011;11096;51.338;12.524;2022-07-15T00:04:13;3.92;;;0.73;;
21862;SDS011;11096;51.338;12.524;2022-07-15T00:06:38;2.95;;;0.70;;
21862;SDS011;11096;51.338;12.524;2022-07-15T00:09:03;1.35;;;0.65;;
21862;SDS011;11096;51.338;12.524;2022-07-15T00:11:29;4.20;;;0.80;;
21862;SDS011;11096;51.338;12.524;2022-07-15T00:13:54;4.10;;;0.80;;
21862;SDS011;11096;51.338;12.524;2022-07-15T00:16:20;2.38;;;0.88;;
21862;SDS011;11096;51.338;12.524;2022-07-15T00:18:45;1.63;;;0.80;;
21862;SDS011;11096;51.338;12.524;2022-07-15T00:21:11;0.63;;;0.63;;
21862;SDS011;11096;51.338;12.524;2022-07-15T00:23:36;1.48;;;0.60;;
21862;SDS011;11096;51.338;12.524;2022-07-15T00:26:01;2.60;;;0.80;;
21862;SDS011;11096;51.338;12.524;2022-07-15T00:28:27;2.85;;;0.75;;
21862;SDS011;11096;51.338;12.524;2022-07-15T00:30:53;2.38;;;0.73;;
21862;SDS011;11096;51.338;12.524;2022-07-15T00:33:20;6.32;;;0.90;;
21862;SDS011;11096;51.338;12.524;2022-07-15T00:35:45;3.97;;;0.90;;
21862;SDS011;11096;51.338;12.524;2022-07-15T00:38:11;1.00;;;0.65;;
21862;SDS011;11096;51.338;12.524;2022-07-15T00:40:40;1.88;;;0.90;;
21862;SDS011;11096;51.338;12.524;2022-07-15T00:43:10;3.05;;;0.68;;
21862;SDS011;11096;51.338;12.524;2022-07-15T00:45:35;2.90;;;0.70;;
21862;SDS011;11096;51.338;12.524;2022-07-15T00:48:01;1.02;;;0.90;;
21862;SDS011;11096;51.338;12.524;2022-07-15T00:50:28;1.05;;;0.80;;
21862;SDS011;11096;51.338;12.524;2022-07-15T00:55:24;1.30;;;0.80;;
21862;SDS011;11096;51.338;12.524;2022-07-15T00:57:50;4.20;;;0.70;;
21862;SDS011;11096;51.338;12.524;2022-07-15T01:00:19;3.65;;;0.70;;
21862;SDS011;11096;51.338;12.524;2022-07-15T01:02:46;3.42;;;0.80;;
21862;SDS011;11096;51.338;12.524;2022-07-15T01:05:15;1.48;;;0.85;;
21862;SDS011;11096;51.338;12.524;2022-07-15T01:07:44;2.92;;;1.05;;
21862;SDS011;11096;51.338;12.524;2022-07-15T01:10:10;3.95;;;0.93;;
21862;SDS011;11096;51.338;12.524;2022-07-15T01:12:35;2.70;;;0.95;;
21862;SDS011;11096;51.338;12.524;2022-07-15T01:15:08;4.18;;;0.90;;
21862;SDS011;11096;51.338;12.524;2022-07-15T01:17:34;2.95;;;1.02;;
21862;SDS011;11096;51.338;12.524;2022-07-15T01:20:00;1.52;;;1.05;;
21862;SDS011;11096;51.338;12.524;2022-07-15T01:22:26;2.65;;;1.17;;
21862;SDS011;11096;51.338;12.524;2022-07-15T01:24:51;2.05;;;0.90;;
21862;SDS011;11096;51.338;12.524;2022-07-15T01:27:17;3.03;;;0.93;;
21862;SDS011;11096;51.338;12.524;2022-07-15T01:29:43;2.10;;;0.90;;
21862;SDS011;11096;51.338;12.524;2022-07-15T01:32:08;2.92;;;1.20;;
21862;SDS011;11096;51.338;12.524;2022-07-15T01:34:34;1.10;;;0.98;;
21862;SDS011;11096;51.338;12.524;2022-07-15T01:36:59;3.88;;;0.93;;
21862;SDS011;11096;51.338;12.524;2022-07-15T01:39:25;2.33;;;1.13;;
21862;SDS011;11096;51.338;12.524;2022-07-15T01:41:50;3.78;;;0.95;;
21862;SDS011;11096;51.338;12.524;2022-07-15T01:44:16;4.88;;;1.10;;
21862;SDS011;11096;51.338;12.524;2022-07-15T01:46:41;3.13;;;0.80;;
21862;SDS011;11096;51.338;12.524;2022-07-15T01:49:06;5.32;;;1.10;;
21862;SDS011;11096;51.338;12.524;2022-07-15T01:51:50;1.08;;;0.95;;
21862;SDS011;11096;51.338;12.524;2022-07-15T01:54:15;2.78;;;1.30;;
21862;SDS011;11096;51.338;12.524;2022-07-15T01:56:41;3.05;;;0.90;;
21862;SDS011;11096;51.338;12.524;2022-07-15T01:59:07;2.85;;;1.10;;
21862;SDS011;11096;51.338;12.524;2022-07-15T02:01:33;4.57;;;0.93;;
21862;SDS011;11096;51.338;12.524;2022-07-15T02:03:59;1.88;;;0.85;;
21862;SDS011;11096;51.338;12.524;2022-07-15T02:06:24;1.65;;;1.00;;
21862;SDS011;11096;51.338;12.524;2022-07-15T02:08:50;6.68;;;1.40;;
21862;SDS011;11096;51.338;12.524;2022-07-15T02:11:15;5.00;;;1.30;;
21862;SDS011;11096;51.338;12.524;2022-07-15T02:13:41;2.25;;;1.30;;
21862;SDS011;11096;51.338;12.524;2022-07-15T02:16:06;1.83;;;1.00;;
21862;SDS011;11096;51.338;12.524;2022-07-15T02:18:32;6.70;;;1.45;;
21862;SDS011;11096;51.338;12.524;2022-07-15T02:20:57;2.90;;;1.38;;
21862;SDS011;11096;51.338;12.524;2022-07-15T02:23:23;5.82;;;1.38;;
21862;SDS011;11096;51.338;12.524;2022-07-15T02:25:48;3.58;;;1.08;;
21862;SDS011;11096;51.338;12.524;2022-07-15T02:28:14;2.72;;;1.20;;
21862;SDS011;11096;51.338;12.524;2022-07-15T02:30:40;4.78;;;1.60;;
21862;SDS011;11096;51.338;12.524;2022-07-15T02:33:07;3.88;;;1.50;;
21862;SDS011;11096;51.338;12.524;2022-07-15T02:35:33;2.63;;;1.13;;
21862;SDS011;11096;51.338;12.524;2022-07-15T02:37:59;3.40;;;1.40;;
21862;SDS011;11096;51.338;12.524;2022-07-15T02:40:25;5.07;;;1.58;;
21862;SDS011;11096;51.338;12.524;2022-07-15T02:42:52;3.75;;;1.50;;
21862;SDS011;11096;51.338;12.524;2022-07-15T02:45:19;5.50;;;1.30;;
21862;SDS011;11096;51.338;12.524;2022-07-15T02:47:46;1.55;;;1.30;;
21862;SDS011;11096;51.338;12.524;2022-07-15T02:50:13;1.92;;;1.20;;
21862;SDS011;11096;51.338;12.524;2022-07-15T02:52:39;3.10;;;1.20;;
21862;SDS011;11096;51.338;12.524;2022-07-15T02:55:05;6.20;;;2.10;;
21862;SDS011;11096;51.338;12.524;2022-07-15T02:57:31;4.72;;;1.67;;
21862;SDS011;11096;51.338;12.524;2022-07-15T02:59:56;4.85;;;1.40;;
21862;SDS011;11096;51.338;12.524;2022-07-15T03:02:21;3.05;;;1.52;;
21862;SDS011;11096;51.338;12.524;2022-07-15T03:04:47;2.40;;;1.20;;
21862;SDS011;11096;51.338;12.524;2022-07-15T03:07:13;7.15;;;1.55;;
21862;SDS011;11096;51.338;12.524;2022-07-15T03:09:38;2.17;;;1.30;;
21862;SDS011;11096;51.338;12.524;2022-07-15T03:12:04;3.78;;;1.40;;
21862;SDS011;11096;51.338;12.524;2022-07-15T03:14:30;6.95;;;1.77;;
21862;SDS011;11096;51.338;12.524;2022-07-15T03:16:55;7.68;;;1.70;;
21862;SDS011;11096;51.338;12.524;2022-07-15T03:19:21;3.40;;;1.50;;
21862;SDS011;11096;51.338;12.524;2022-07-15T03:21:47;4.32;;;1.35;;
21862;SDS011;11096;51.338;12.524;2022-07-15T03:24:14;3.63;;;1.35;;
21862;SDS011;11096;51.338;12.524;2022-07-15T03:26:40;5.63;;;1.48;;
21862;SDS011;11096;51.338;12.524;2022-07-15T03:29:06;4.63;;;1.55;;
21862;SDS011;11096;51.338;12.524;2022-07-15T03:31:31;1.55;;;1.42;;
21862;SDS011;11096;51.338;12.524;2022-07-15T03:33:56;4.20;;;1.55;;
21862;SDS011;11096;51.338;12.524;2022-07-15T03:36:22;2.47;;;1.30;;
21862;SDS011;11096;51.338;12.524;2022-07-15T03:38:48;4.15;;;1.38;;
21862;SDS011;11096;51.338;12.524;2022-07-15T03:41:16;3.72;;;1.80;;
21862;SDS011;11096;51.338;12.524;2022-07-15T03:43:42;2.92;;;1.52;;
21862;SDS011;11096;51.338;12.524;2022-07-15T03:46:08;5.53;;;1.58;;
21862;SDS011;11096;51.338;12.524;2022-07-15T03:48:33;5.32;;;1.85;;
21862;SDS011;11096;51.338;12.524;2022-07-15T03:50:58;8.73;;;1.60;;
21862;SDS011;11096;51.338;12.524;2022-07-15T03:53:24;4.68;;;1.80;;
21862;SDS011;11096;51.338;12.524;2022-07-15T03:55:49;3.92;;;1.60;;
21862;SDS011;11096;51.338;12.524;2022-07-15T03:58:15;5.18;;;1.80;;
21862;SDS011;11096;51.338;12.524;2022-07-15T04:00:40;5.90;;;1.80;;
21862;SDS011;11096;51.338;12.524;2022-07-15T04:03:06;3.83;;;1.70;;
21862;SDS011;11096;51.338;12.524;2022-07-15T04:05:31;5.00;;;1.67;;
21862;SDS011;11096;51.338;12.524;2022-07-15T04:07:57;5.72;;;1.67;;
21862;SDS011;11096;51.338;12.524;2022-07-15T04:10:22;5.38;;;1.60;;
21862;SDS011;11096;51.338;12.524;2022-07-15T04:12:48;4.72;;;1.60;;
21862;SDS011;11096;51.338;12.524;2022-07-15T04:15:13;7.72;;;1.90;;
21862;SDS011;11096;51.338;12.524;2022-07-15T04:17:39;3.22;;;1.38;;
21862;SDS011;11096;51.338;12.524;2022-07-15T04:20:06;4.10;;;1.33;;
21862;SDS011;11096;51.338;12.524;2022-07-15T04:22:39;3.47;;;1.20;;
21862;SDS011;11096;51.338;12.524;2022-07-15T04:25:09;6.70;;;1.80;;
21862;SDS011;11096;51.338;12.524;2022-07-15T04:27:36;7.20;;;1.60;;
21862;SDS011;11096;51.338;12.524;2022-07-15T04:30:02;4.00;;;1.85;;
21862;SDS011;11096;51.338;12.524;2022-07-15T04:32:31;7.03;;;1.90;;
21862;SDS011;11096;51.338;12.524;2022-07-15T04:34:57;8.93;;;1.75;;
21862;SDS011;11096;51.338;12.524;2022-07-15T04:37:22;6.05;;;1.63;;
21862;SDS011;11096;51.338;12.524;2022-07-15T04:39:47;2.97;;;1.17;;
21862;SDS011;11096;51.338;12.524;2022-07-15T04:42:13;7.47;;;1.60;;
21862;SDS011;11096;51.338;12.524;2022-07-15T04:44:39;5.45;;;1.30;;
21862;SDS011;11096;51.338;12.524;2022-07-15T04:47:04;5.68;;;1.30;;
21862;SDS011;11096;51.338;12.524;2022-07-15T04:49:29;6.72;;;1.60;;
21862;SDS011;11096;51.338;12.524;2022-07-15T04:52:14;8.90;;;1.60;;
21862;SDS011;11096;51.338;12.524;2022-07-15T04:54:40;3.75;;;1.30;;
21862;SDS011;11096;51.338;12.524;2022-07-15T04:57:06;3.97;;;1.58;;
21862;SDS011;11096;51.338;12.524;2022-07-15T04:59:31;6.70;;;1.40;;
21862;SDS011;11096;51.338;12.524;2022-07-15T05:01:57;7.28;;;1.60;;
21862;SDS011;11096;51.338;12.524;2022-07-15T05:04:23;7.53;;;1.50;;
21862;SDS011;11096;51.338;12.524;2022-07-15T05:06:49;4.90;;;1.77;;
21862;SDS011;11096;51.338;12.524;2022-07-15T05:09:14;8.07;;;1.70;;
21862;SDS011;11096;51.338;12.524;2022-07-15T05:11:40;8.57;;;1.55;;
21862;SDS011;11096;51.338;12.524;2022-07-15T05:14:05;9.82;;;1.73;;
21862;SDS011;11096;51.338;12.524;2022-07-15T05:16:30;7.70;;;1.88;;
21862;SDS011;11096;51.338;12.524;2022-07-15T05:18:56;8.23;;;1.80;;
21862;SDS011;11096;51.338;12.524;2022-07-15T05:21:22;7.22;;;1.90;;
21862;SDS011;11096;51.338;12.524;2022-07-15T05:23:47;8.98;;;1.55;;
21862;SDS011;11096;51.338;12.524;2022-07-15T05:26:13;7.15;;;1.50;;
21862;SDS011;11096;51.338;12.524;2022-07-15T05:28:38;7.63;;;1.48;;
21862;SDS011;11096;51.338;12.524;2022-07-15T05:31:04;7.75;;;1.80;;
21862;SDS011;11096;51.338;12.524;2022-07-15T05:33:32;7.05;;;1.45;;
21862;SDS011;11096;51.338;12.524;2022-07-15T05:35:58;7.25;;;1.48;;
21862;SDS011;11096;51.338;12.524;2022-07-15T05:38:24;5.80;;;1.40;;
21862;SDS011;11096;51.338;12.524;2022-07-15T05:40:50;3.92;;;1.20;;
21862;SDS011;11096;51.338;12.524;2022-07-15T05:43:15;5.47;;;1.42;;
21862;SDS011;11096;51.338;12.524;2022-07-15T05:45:41;5.25;;;1.35;;
21862;SDS011;11096;51.338;12.524;2022-07-15T05:48:06;5.68;;;1.52;;
21862;SDS011;11096;51.338;12.524;2022-07-15T05:50:32;7.10;;;1.30;;
21862;SDS011;11096;51.338;12.524;2022-07-15T05:52:58;8.80;;;1.35;;
21862;SDS011;11096;51.338;12.524;2022-07-15T05:55:24;5.50;;;1.23;;
21862;SDS011;11096;51.338;12.524;2022-07-15T05:57:49;9.60;;;1.70;;
21862;SDS011;11096;51.338;12.524;2022-07-15T06:00:15;7.82;;;1.20;;
21862;SDS011;11096;51.338;12.524;2022-07-15T06:02:41;7.78;;;1.30;;
21862;SDS011;11096;51.338;12.524;2022-07-15T06:05:07;9.18;;;1.88;;
21862;SDS011;11096;51.338;12.524;2022-07-15T06:07:33;8.60;;;1.75;;
21862;SDS011;11096;51.338;12.524;2022-07-15T06:09:58;6.13;;;1.80;;
21862;SDS011;11096;51.338;12.524;2022-07-15T06:12:24;5.70;;;1.55;;
21862;SDS011;11096;51.338;12.524;2022-07-15T06:14:49;4.50;;;1.80;;
21862;SDS011;11096;51.338;12.524;2022-07-15T06:17:14;7.80;;;1.42;;
21862;SDS011;11096;51.338;12.524;2022-07-15T06:19:40;5.10;;;1.10;;
21862;SDS011;11096;51.338;12.524;2022-07-15T06:22:05;7.55;;;1.38;;
21862;SDS011;11096;51.338;12.524;2022-07-15T06:24:31;5.45;;;1.70;;
21862;SDS011;11096;51.338;12.524;2022-07-15T06:26:57;9.07;;;1.65;;
21862;SDS011;11096;51.338;12.524;2022-07-15T06:29:23;4.55;;;1.20;;
21862;SDS011;11096;51.338;12.524;2022-07-15T06:31:49;10.90;;;1.50;;
21862;SDS011;11096;51.338;12.524;2022-07-15T06:34:14;6.25;;;1.67;;
21862;SDS011;11096;51.338;12.524;2022-07-15T06:36:40;11.68;;;1.58;;
21862;SDS011;11096;51.338;12.524;2022-07-15T06:39:06;9.23;;;1.50;;
21862;SDS011;11096;51.338;12.524;2022-07-15T06:41:31;5.60;;;1.27;;
21862;SDS011;11096;51.338;12.524;2022-07-15T06:43:57;5.70;;;1.23;;
21862;SDS011;11096;51.338;12.524;2022-07-15T06:46:23;5.80;;;1.45;;
21862;SDS011;11096;51.338;12.524;2022-07-15T06:48:49;5.65;;;1.42;;
21862;SDS011;11096;51.338;12.524;2022-07-15T06:51:14;6.95;;;1.52;;
21862;SDS011;11096;51.338;12.524;2022-07-15T06:53:40;4.95;;;1.27;;
21862;SDS011;11096;51.338;12.524;2022-07-15T06:56:05;8.93;;;1.20;;
21862;SDS011;11096;51.338;12.524;2022-07-15T06:58:30;6.47;;;1.27;;
21862;SDS011;11096;51.338;12.524;2022-07-15T07:00:56;7.07;;;1.30;;
21862;SDS011;11096;51.338;12.524;2022-07-15T07:03:21;5.30;;;1.30;;
21862;SDS011;11096;51.338;12.524;2022-07-15T07:05:47;9.50;;;1.48;;
21862;SDS011;11096;51.338;12.524;2022-07-15T07:08:12;4.88;;;1.08;;
21862;SDS011;11096;51.338;12.524;2022-07-15T07:10:37;5.43;;;1.05;;
21862;SDS011;11096;51.338;12.524;2022-07-15T07:13:03;4.63;;;0.80;;
21862;SDS011;11096;51.338;12.524;2022-07-15T07:15:28;3.85;;;0.77;;
21862;SDS011;11096;51.338;12.524;2022-07-15T07:17:53;8.55;;;1.10;;
21862;SDS011;11096;51.338;12.524;2022-07-15T07:20:19;11.77;;;1.27;;
21862;SDS011;11096;51.338;12.524;2022-07-15T07:22:45;5.88;;;1.17;;
21862;SDS011;11096;51.338;12.524;2022-07-15T07:25:10;6.20;;;1.23;;
21862;SDS011;11096;51.338;12.524;2022-07-15T07:27:36;7.50;;;1.35;;
21862;SDS011;11096;51.338;12.524;2022-07-15T07:30:01;6.97;;;1.10;;
21862;SDS011;11096;51.338;12.524;2022-07-15T07:32:28;10.32;;;1.50;;
21862;SDS011;11096;51.338;12.524;2022-07-15T07:34:54;8.10;;;1.60;;
21862;SDS011;11096;51.338;12.524;2022-07-15T07:37:19;8.70;;;1.20;;
21862;SDS011;11096;51.338;12.524;2022-07-15T07:39:44;4.75;;;1.13;;
21862;SDS011;11096;51.338;12.524;2022-07-15T07:42:10;5.53;;;1.27;;
21862;SDS011;11096;51.338;12.524;2022-07-15T07:44:35;5.07;;;1.08;;
21862;SDS011;11096;51.338;12.524;2022-07-15T07:47:01;5.28;;;0.80;;
21862;SDS011;11096;51.338;12.524;2022-07-15T07:49:27;9.73;;;0.93;;
21862;SDS011;11096;51.338;12.524;2022-07-15T07:51:52;11.30;;;1.50;;
21862;SDS011;11096;51.338;12.524;2022-07-15T07:54:18;8.05;;;1.73;;
21862;SDS011;11096;51.338;12.524;2022-07-15T07:56:43;4.93;;;1.00;;
21862;SDS011;11096;51.338;12.524;2022-07-15T07:59:10;5.07;;;1.00;;
21862;SDS011;11096;51.338;12.524;2022-07-15T08:01:35;10.70;;;1.00;;
21862;SDS011;11096;51.338;12.524;2022-07-15T08:04:01;2.45;;;0.70;;
21862;SDS011;11096;51.338;12.524;2022-07-15T08:06:27;4.70;;;0.73;;
21862;SDS011;11096;51.338;12.524;2022-07-15T08:08:52;5.78;;;1.42;;
21862;SDS011;11096;51.338;12.524;2022-07-15T08:11:18;4.53;;;0.65;;
21862;SDS011;11096;51.338;12.524;2022-07-15T08:13:47;5.55;;;0.90;;
21862;SDS011;11096;51.338;12.524;2022-07-15T08:16:12;4.85;;;0.50;;
21862;SDS011;11096;51.338;12.524;2022-07-15T08:18:38;4.47;;;0.60;;
21862;SDS011;11096;51.338;12.524;2022-07-15T08:21:03;3.50;;;0.65;;
21862;SDS011;11096;51.338;12.524;2022-07-15T08:23:30;3.85;;;0.60;;
21862;SDS011;11096;51.338;12.524;2022-07-15T08:25:57;2.85;;;0.57;;
21862;SDS011;11096;51.338;12.524;2022-07-15T08:28:23;2.17;;;0.63;;
21862;SDS011;11096;51.338;12.524;2022-07-15T08:30:49;4.35;;;0.70;;
21862;SDS011;11096;51.338;12.524;2022-07-15T08:33:14;1.80;;;0.68;;
21862;SDS011;11096;51.338;12.524;2022-07-15T08:35:40;5.90;;;0.60;;
21862;SDS011;11096;51.338;12.524;2022-07-15T08:38:06;4.60;;;0.60;;
21862;SDS011;11096;51.338;12.524;2022-07-15T08:40:36;2.85;;;0.47;;
21862;SDS011;11096;51.338;12.524;2022-07-15T08:43:05;4.25;;;0.80;;
21862;SDS011;11096;51.338;12.524;2022-07-15T08:45:32;3.10;;;0.52;;
21862;SDS011;11096;51.338;12.524;2022-07-15T08:47:59;3.10;;;0.60;;
21862;SDS011;11096;51.338;12.524;2022-07-15T08:50:27;4.25;;;0.88;;
21862;SDS011;11096;51.338;12.524;2022-07-15T08:52:53;2.47;;;0.63;;
21862;SDS011;11096;51.338;12.524;2022-07-15T08:55:20;5.60;;;0.98;;
21862;SDS011;11096;51.338;12.524;2022-07-15T08:57:46;6.15;;;0.70;;
21862;SDS011;11096;51.338;12.524;2022-07-15T09:00:12;4.75;;;0.93;;
21862;SDS011;11096;51.338;12.524;2022-07-15T09:02:39;4.95;;;0.68;;
21862;SDS011;11096;51.338;12.524;2022-07-15T09:05:24;3.60;;;0.95;;
21862;SDS011;11096;51.338;12.524;2022-07-15T09:08:06;2.67;;;0.40;;
21862;SDS011;11096;51.338;12.524;2022-07-15T09:10:52;4.32;;;0.98;;
21862;SDS011;11096;51.338;12.524;2022-07-15T09:15:54;4.18;;;0.60;;
21862;SDS011;11096;51.338;12.524;2022-07-15T09:18:21;5.03;;;0.93;;
21862;SDS011;11096;51.338;12.524;2022-07-15T09:20:48;4.18;;;0.40;;
21862;SDS011;11096;51.338;12.524;2022-07-15T09:23:15;1.38;;;0.50;;
21862;SDS011;11096;51.338;12.524;2022-07-15T09:25:46;1.52;;;0.30;;
21862;SDS011;11096;51.338;12.524;2022-07-15T09:28:12;2.45;;;0.57;;
21862;SDS011;11096;51.338;12.524;2022-07-15T09:30:39;3.83;;;0.60;;
21862;SDS011;11096;51.338;12.524;2022-07-15T09:33:26;3.13;;;0.70;;
21862;SDS011;11096;51.338;12.524;2022-07-15T09:38:42;2.42;;;0.50;;
21862;SDS011;11096;51.338;12.524;2022-07-15T09:54:19;2.17;;;0.52;;
21862;SDS011;11096;51.338;12.524;2022-07-15T09:56:46;1.67;;;0.60;;
21862;SDS011;11096;51.338;12.524;2022-07-15T09:59:12;2.33;;;0.50;;
21862;SDS011;11096;51.338;12.524;2022-07-15T10:01:37;2.95;;;0.80;;
21862;SDS011;11096;51.338;12.524;2022-07-15T10:04:05;2.60;;;0.57;;
21862;SDS011;11096;51.338;12.524;2022-07-15T10:06:31;2.05;;;0.50;;
21862;SDS011;11096;51.338;12.524;2022-07-15T10:08:58;1.27;;;0.35;;
21862;SDS011;11096;51.338;12.524;2022-07-15T10:11:23;2.85;;;0.52;;
21862;SDS011;11096;51.338;12.524;2022-07-15T10:19:27;5.00;;;0.68;;
21862;SDS011;11096;51.338;12.524;2022-07-15T10:29:57;2.45;;;0.40;;
21862;SDS011;11096;51.338;12.524;2022-07-15T10:32:29;3.78;;;0.50;;
21862;SDS011;11096;51.338;12.524;2022-07-15T10:34:54;4.93;;;0.77;;
21862;SDS011;11096;51.338;12.524;2022-07-15T10:37:19;2.22;;;0.30;;
21862;SDS011;11096;51.338;12.524;2022-07-15T10:39:52;6.22;;;1.00;;
21862;SDS011;11096;51.338;12.524;2022-07-15T10:42:28;3.08;;;0.47;;
21862;SDS011;11096;51.338;12.524;2022-07-15T10:45:24;2.75;;;0.40;;
21862;SDS011;11096;51.338;12.524;2022-07-15T10:47:49;3.83;;;0.60;;
21862;SDS011;11096;51.338;12.524;2022-07-15T10:50:55;4.65;;;0.65;;
21862;SDS011;11096;51.338;12.524;2022-07-15T10:53:24;2.72;;;0.43;;
21862;SDS011;11096;51.338;12.524;2022-07-15T10:55:51;4.82;;;0.43;;
21862;SDS011;11096;51.338;12.524;2022-07-15T10:58:17;7.47;;;0.82;;
21862;SDS011;11096;51.338;12.524;2022-07-15T11:00:43;2.78;;;0.47;;
21862;SDS011;11096;51.338;12.524;2022-07-15T11:03:12;3.05;;;0.63;;
21862;SDS011;11096;51.338;12.524;2022-07-15T11:10:57;3.67;;;0.60;;
21862;SDS011;11096;51.338;12.524;2022-07-15T11:13:45;2.45;;;0.63;;
21862;SDS011;11096;51.338;12.524;2022-07-15T11:16:12;5.35;;;0.65;;
21862;SDS011;11096;51.338;12.524;2022-07-15T11:18:48;3.92;;;0.60;;
21862;SDS011;11096;51.338;12.524;2022-07-15T11:21:15;2.78;;;0.57;;
21862;SDS011;11096;51.338;12.524;2022-07-15T11:23:45;4.25;;;0.40;;
21862;SDS011;11096;51.338;12.524;2022-07-15T11:26:11;3.95;;;0.60;;
21862;SDS011;11096;51.338;12.524;2022-07-15T11:28:37;2.30;;;0.30;;
21862;SDS011;11096;51.338;12.524;2022-07-15T11:31:02;3.92;;;0.65;;
21862;SDS011;11096;51.338;12.524;2022-07-15T11:33:28;1.58;;;0.40;;
21862;SDS011;11096;51.338;12.524;2022-07-15T11:35:59;3.92;;;0.52;;
21862;SDS011;11096;51.338;12.524;2022-07-15T11:38:30;3.28;;;0.40;;
21862;SDS011;11096;51.338;12.524;2022-07-15T11:40:58;2.92;;;0.57;;
21862;SDS011;11096;51.338;12.524;2022-07-15T11:43:43;3.65;;;0.50;;
21862;SDS011;11096;51.338;12.524;2022-07-15T11:46:27;1.67;;;0.60;;
21862;SDS011;11096;51.338;12.524;2022-07-15T11:48:55;3.80;;;0.50;;
21862;SDS011;11096;51.338;12.524;2022-07-15T11:51:28;3.33;;;0.60;;
21862;SDS011;11096;51.338;12.524;2022-07-15T11:53:55;2.88;;;0.65;;
21862;SDS011;11096;51.338;12.524;2022-07-15T11:56:23;4.63;;;0.90;;
21862;SDS011;11096;51.338;12.524;2022-07-15T11:58:50;2.53;;;0.52;;
21862;SDS011;11096;51.338;12.524;2022-07-15T12:01:19;2.50;;;0.40;;
21862;SDS011;11096;51.338;12.524;2022-07-15T12:03:50;2.80;;;0.50;;
21862;SDS011;11096;51.338;12.524;2022-07-15T12:06:24;6.57;;;1.30;;
21862;SDS011;11096;51.338;12.524;2022-07-15T12:09:02;4.03;;;0.60;;
21862;SDS011;11096;51.338;12.524;2022-07-15T12:11:36;4.10;;;0.98;;
21862;SDS011;11096;51.338;12.524;2022-07-15T12:14:10;3.20;;;0.68;;
21862;SDS011;11096;51.338;12.524;2022-07-15T12:16:41;3.22;;;0.73;;
21862;SDS011;11096;51.338;12.524;2022-07-15T12:19:24;4.57;;;0.63;;
21862;SDS011;11096;51.338;12.524;2022-07-15T12:21:56;4.47;;;0.68;;
21862;SDS011;11096;51.338;12.524;2022-07-15T12:24:24;2.55;;;0.40;;
21862;SDS011;11096;51.338;12.524;2022-07-15T12:29:23;3.13;;;0.55;;
21862;SDS011;11096;51.338;12.524;2022-07-15T12:31:54;2.92;;;0.75;;
21862;SDS011;11096;51.338;12.524;2022-07-15T12:34:22;2.92;;;0.80;;
21862;SDS011;11096;51.338;12.524;2022-07-15T12:37:07;4.20;;;0.70;;
21862;SDS011;11096;51.338;12.524;2022-07-15T12:39:32;4.07;;;0.50;;
21862;SDS011;11096;51.338;12.524;2022-07-15T12:42:00;4.65;;;0.98;;
21862;SDS011;11096;51.338;12.524;2022-07-15T12:44:28;4.93;;;0.80;;
21862;SDS011;11096;51.338;12.524;2022-07-15T12:46:55;2.50;;;0.38;;
21862;SDS011;11096;51.338;12.524;2022-07-15T12:52:31;3.47;;;0.68;;
21862;SDS011;11096;51.338;12.524;2022-07-15T12:55:13;4.25;;;0.70;;
21862;SDS011;11096;51.338;12.524;2022-07-15T12:57:41;9.02;;;1.20;;
21862;SDS011;11096;51.338;12.524;2022-07-15T13:00:17;13.88;;;1.25;;
21862;SDS011;11096;51.338;12.524;2022-07-15T13:05:36;3.35;;;0.65;;
21862;SDS011;11096;51.338;12.524;2022-07-15T13:08:08;5.03;;;0.85;;
21862;SDS011;11096;51.338;12.524;2022-07-15T13:10:37;11.35;;;1.05;;
21862;SDS011;11096;51.338;12.524;2022-07-15T13:13:03;2.22;;;0.80;;
21862;SDS011;11096;51.338;12.524;2022-07-15T13:15:30;2.35;;;0.57;;
21862;SDS011;11096;51.338;12.524;2022-07-15T13:17:56;3.70;;;0.80;;
21862;SDS011;11096;51.338;12.524;2022-07-15T13:20:21;3.08;;;0.68;;
21862;SDS011;11096;51.338;12.524;2022-07-15T13:22:48;4.20;;;0.93;;
21862;SDS011;11096;51.338;12.524;2022-07-15T13:25:14;5.40;;;0.90;;
21862;SDS011;11096;51.338;12.524;2022-07-15T13:27:40;4.97;;;1.17;;
21862;SDS011;11096;51.338;12.524;2022-07-15T13:30:06;7.97;;;1.02;;
21862;SDS011;11096;51.338;12.524;2022-07-15T13:32:33;7.03;;;0.95;;
21862;SDS011;11096;51.338;12.524;2022-07-15T13:34:58;3.65;;;0.88;;
21862;SDS011;11096;51.338;12.524;2022-07-15T13:37:24;3.63;;;0.60;;
21862;SDS011;11096;51.338;12.524;2022-07-15T13:39:49;4.85;;;0.85;;
21862;SDS011;11096;51.338;12.524;2022-07-15T13:42:15;3.15;;;0.60;;
21862;SDS011;11096;51.338;12.524;2022-07-15T13:44:40;4.30;;;0.70;;
21862;SDS011;11096;51.338;12.524;2022-07-15T13:47:06;4.03;;;0.60;;
21862;SDS011;11096;51.338;12.524;2022-07-15T13:49:32;3.65;;;0.52;;
21862;SDS011;11096;51.338;12.524;2022-07-15T13:52:16;4.32;;;0.52;;
21862;SDS011;11096;51.338;12.524;2022-07-15T13:54:41;6.32;;;0.75;;
21862;SDS011;11096;51.338;12.524;2022-07-15T13:57:07;1.98;;;0.50;;
21862;SDS011;11096;51.338;12.524;2022-07-15T13:59:32;3.58;;;0.65;;
21862;SDS011;11096;51.338;12.524;2022-07-15T14:01:58;4.15;;;0.52;;
21862;SDS011;11096;51.338;12.524;2022-07-15T14:04:23;6.22;;;0.60;;
21862;SDS011;11096;51.338;12.524;2022-07-15T14:06:49;3.83;;;0.70;;
21862;SDS011;11096;51.338;12.524;2022-07-15T14:09:14;3.90;;;0.90;;
21862;SDS011;11096;51.338;12.524;2022-07-15T14:11:40;2.88;;;0.57;;
21862;SDS011;11096;51.338;12.524;2022-07-15T14:14:05;4.22;;;0.90;;
21862;SDS011;11096;51.338;12.524;2022-07-15T14:16:30;7.38;;;0.93;;
21862;SDS011;11096;51.338;12.524;2022-07-15T14:18:56;5.30;;;0.70;;
21862;SDS011;11096;51.338;12.524;2022-07-15T14:21:21;4.15;;;0.90;;
21862;SDS011;11096;51.338;12.524;2022-07-15T14:23:47;4.57;;;0.93;;
21862;SDS011;11096;51.338;12.524;2022-07-15T14:26:13;4.35;;;0.70;;
21862;SDS011;11096;51.338;12.524;2022-07-15T14:28:39;3.67;;;0.70;;
21862;SDS011;11096;51.338;12.524;2022-07-15T14:31:07;3.03;;;0.98;;
21862;SDS011;11096;51.338;12.524;2022-07-15T14:33:33;4.13;;;1.20;;
21862;SDS011;11096;51.338;12.524;2022-07-15T14:35:59;4.47;;;1.25;;
21862;SDS011;11096;51.338;12.524;2022-07-15T14:38:24;5.50;;;0.80;;
21862;SDS011;11096;51.338;12.524;2022-07-15T14:40:50;3.15;;;0.80;;
21862;SDS011;11096;51.338;12.524;2022-07-15T14:43:15;6.00;;;0.60;;
21862;SDS011;11096;51.338;12.524;2022-07-15T14:45:41;4.97;;;0.80;;
21862;SDS011;11096;51.338;12.524;2022-07-15T14:48:06;2.72;;;0.63;;
21862;SDS011;11096;51.338;12.524;2022-07-15T14:50:32;3.67;;;0.88;;
21862;SDS011;11096;51.338;12.524;2022-07-15T14:52:58;3.60;;;0.77;;
21862;SDS011;11096;51.338;12.524;2022-07-15T14:55:24;3.78;;;0.68;;
21862;SDS011;11096;51.338;12.524;2022-07-15T14:57:50;3.65;;;0.65;;
21862;SDS011;11096;51.338;12.524;2022-07-15T15:00:15;4.38;;;0.70;;
21862;SDS011;11096;51.338;12.524;2022-07-15T15:02:41;5.55;;;0.85;;
21862;SDS011;11096;51.338;12.524;2022-07-15T15:05:07;3.03;;;0.73;;
21862;SDS011;11096;51.338;12.524;2022-07-15T15:07:32;4.28;;;0.82;;
21862;SDS011;11096;51.338;12.524;2022-07-15T15:09:57;2.47;;;0.55;;
21862;SDS011;11096;51.338;12.524;2022-07-15T15:12:23;5.90;;;1.00;;
21862;SDS011;11096;51.338;12.524;2022-07-15T15:14:48;5.60;;;0.93;;
21862;SDS011;11096;51.338;12.524;2022-07-15T15:17:13;6.07;;;1.10;;
21862;SDS011;11096;51.338;12.524;2022-07-15T15:19:39;4.10;;;0.85;;
21862;SDS011;11096;51.338;12.524;2022-07-15T15:22:04;2.30;;;0.70;;